Terminal Aerodrome Forecast
Issued by NWS Raleigh/Durham, NC

Current Version | Previous Version | Text Only | Print | Product List | Glossary On
Versions: 1 2 3 4 5 6 7 8 9 10 11 12 13 14 15 16 17 18 19 20
000
FTUS42 KRAH 272332
TAFFAY
TAF
KFAY 272332Z 2800/2824 15007KT P6SM SKC
     FM280500 16003KT P6SM BKN040 BKN100
     FM280800 17004KT P6SM OVC025
     FM281200 20007KT P6SM BKN030 BKN090
     FM281400 21012G18KT P6SM BKN035 BKN120=

USA.gov is the U.S. government's official web portal to all federal, state and local government web resources and services.